Flight Track Log - Related Links

Times and Time Zones

All times are in EDT time to prevent confusion due to time zone crossing. See the BER8375 flight status page for this flight to view local times or setup timezone preferences in your user account.

Time Position Orientation Groundspeed Altitude Reporting Facility
EDT Latitude Longitude Course Direction KTS MPH feet Rate Location/Type
Wed 09:56:00 AM 48.7324 14.2721 293° West  Level Estimated
Wed 09:57:00 AM 48.7675 14.1352 291° West  Level Estimated
Wed 09:58:00 AM 48.8025 13.9981 291° West  Level Estimated
Wed 09:59:00 AM 48.8373 13.8609 291° West  Level Estimated
Wed 10:00:00 AM 48.8720 13.7234 291° West  Level Estimated
Wed 10:01:00 AM 48.9065 13.5857 291° West  Level Estimated
Wed 10:02:00 AM 48.9409 13.4479 291° West  Level Estimated
Wed 10:03:00 AM 48.9750 13.3098 291° West  Level Estimated
Wed 10:04:00 AM 49.0090 13.1716 291° West  Level Estimated
Wed 10:05:00 AM 49.0429 13.0332 291° West  Level Estimated
Wed 10:06:00 AM 49.0766 12.8946 290° West  Level Estimated
Wed 10:07:00 AM 49.1101 12.7558 290° West  Level Estimated
Wed 10:08:00 AM 49.1434 12.6168 290° West  Level Estimated
Wed 10:09:00 AM 49.1766 12.4777 290° West  Level Estimated
Wed 10:10:00 AM 49.2096 12.3383 290° West  Level Estimated
Wed 10:11:00 AM 49.2425 12.1988 290° West  Level Estimated
Wed 10:12:00 AM 49.2752 12.0590 290° West  Level Estimated
Wed 10:13:00 AM 49.3077 11.9191 290° West  Level Estimated
Wed 10:14:00 AM 49.3400 11.7790 290° West  Level Estimated
Wed 10:15:00 AM 49.3722 11.6388 289° West  Level Estimated
Wed 10:16:00 AM 49.4042 11.4983 289° West  Level Estimated
Wed 10:17:00 AM 49.4360 11.3577 289° West  Level Estimated
Wed 10:18:00 AM 49.4677 11.2169 289° West  Level Estimated
Wed 10:19:00 AM 49.4986 11.0781 289° West  Level Estimated
Wed 10:20:00 AM 49.4986 11.0781 327° Northwest  Level Estimated
Wed 10:21:00 AM 49.4986 11.0781 327° Northwest  Level Estimated
Wed 10:22:00 AM 49.4986 11.0781 327° Northwest  Level Estimated
Wed 10:23:00 AM 49.4986 11.0781 327° Northwest  Level Estimated
Wed 10:24:00 AM 49.4986 11.0781 327° Northwest  Level Estimated
Wed 10:25:00 AM 49.4986 11.0781 327° Northwest  Level Estimated
Wed 10:26:00 AM 49.4986 11.0781 327° Northwest  Level Estimated
Wed 10:27:00 AM 49.4986 11.0781 327° Northwest  Level Estimated
Wed 10:28:00 AM 49.4986 11.0781 327° Northwest  Level Estimated
Wed 10:29:00 AM 49.4986 11.0781 327° Northwest  Level Estimated
Wed 10:30:00 AM 49.4986 11.0781 327° Northwest  Level Estimated
Wed 10:31:00 AM 49.4986 11.0781 327° Northwest  Level Estimated
Wed 10:32:00 AM 49.4986 11.0781 327° Northwest  Level Estimated
Wed 10:33:00 AM 49.4986 11.0781 327° Northwest  Level Estimated
Wed 10:34:00 AM 49.4986 11.0781 327° Northwest  Level Estimated
Wed 10:35:00 AM 49.4986 11.0781 327° Northwest  Level Estimated

Login

Don't have an account? Register now (free) for customized features, flight alerts, and more!